createdAt,value
2018-12-20T00:01:43.569Z,17.799999
2018-12-20T00:07:06.401Z,19.799999
2018-12-20T00:12:30.152Z,17.5
2018-12-20T00:17:52.817Z,16.6
2018-12-20T00:23:15.721Z,16.700001
2018-12-20T00:28:38.444Z,16.799999
2018-12-20T00:34:01.176Z,18.299999
2018-12-20T00:39:23.986Z,16.5
2018-12-20T00:44:46.676Z,16.299999
2018-12-20T00:50:09.336Z,20.5
2018-12-20T00:55:32.204Z,17.9
2018-12-20T01:00:54.939Z,16.6
2018-12-20T01:06:17.702Z,16.299999
2018-12-20T01:11:40.397Z,18.700001
2018-12-20T01:17:03.119Z,16.700001
2018-12-20T01:22:25.909Z,15.1
2018-12-20T01:27:48.610Z,16.6
2018-12-20T01:33:11.426Z,17.5
2018-12-20T01:38:33.904Z,22.6
2018-12-20T01:43:56.684Z,18.5
2018-12-20T01:49:20.108Z,20.299999
2018-12-20T01:54:42.872Z,19.700001
2018-12-20T02:00:07.249Z,18.6
2018-12-20T02:05:30.205Z,18.299999
2018-12-20T02:10:53.080Z,21.4
2018-12-20T02:16:15.723Z,17.799999
2018-12-20T02:21:38.498Z,18.9
2018-12-20T02:27:01.275Z,19.5
2018-12-20T02:32:24.188Z,19.299999
2018-12-20T02:37:48.149Z,22.299999
2018-12-20T02:43:10.993Z,21.1
2018-12-20T02:48:33.924Z,21.700001
2018-12-20T02:53:56.925Z,21.700001
2018-12-20T02:59:19.560Z,18.700001
2018-12-20T03:04:42.217Z,20.4
2018-12-20T03:10:04.905Z,20.200001
2018-12-20T03:15:27.894Z,20.6
2018-12-20T03:20:50.791Z,20.5
2018-12-20T03:26:13.047Z,17.5
2018-12-20T03:31:35.901Z,19.5
2018-12-20T03:36:59.555Z,19.9
2018-12-20T03:42:22.460Z,18
2018-12-20T03:47:45.171Z,19.200001
2018-12-20T03:53:07.790Z,18
2018-12-20T03:58:30.594Z,18.700001
2018-12-20T04:03:53.407Z,19.6
2018-12-20T04:09:16.039Z,18.5
2018-12-20T04:14:39.825Z,15.4
2018-12-20T04:20:03.082Z,16.200001
2018-12-20T04:25:25.916Z,20.4
2018-12-20T04:30:48.801Z,19.1
2018-12-20T04:36:21.416Z,17.5
2018-12-20T04:41:45.064Z,19.1
2018-12-20T04:47:07.971Z,19
2018-12-20T04:52:30.668Z,17.299999
2018-12-20T04:57:53.445Z,16.9
2018-12-20T05:03:16.607Z,17.5
2018-12-20T05:08:39.359Z,17.4
2018-12-20T05:14:01.994Z,16.9
2018-12-20T05:19:24.640Z,19.700001
2018-12-20T05:24:47.376Z,18.700001
2018-12-20T05:30:10.145Z,17.200001
2018-12-20T05:35:33.094Z,17.1
2018-12-20T05:40:55.819Z,17.200001
2018-12-20T05:46:19.341Z,19.700001
2018-12-20T05:51:42.315Z,18.700001
2018-12-20T05:57:05.031Z,18
2018-12-20T06:02:27.748Z,20.200001
2018-12-20T06:07:50.605Z,18.5
2018-12-20T06:13:13.372Z,19.6
2018-12-20T06:18:37.999Z,20.5
2018-12-20T06:24:00.677Z,20.299999
2018-12-20T06:29:23.469Z,21.799999
2018-12-20T06:34:46.253Z,23.5
2018-12-20T06:40:09.979Z,28.700001
2018-12-20T06:45:32.877Z,30.1
2018-12-20T06:50:55.732Z,26
2018-12-20T06:56:18.727Z,24
2018-12-20T07:01:41.519Z,25.799999
2018-12-20T07:07:04.182Z,26.200001
2018-12-20T07:12:26.971Z,27.4
2018-12-20T07:17:52.064Z,25.799999
2018-12-20T07:23:15.349Z,26.4
2018-12-20T07:28:38.116Z,27.299999
2018-12-20T07:34:00.970Z,30.6
2018-12-20T07:39:23.748Z,28.6
2018-12-20T07:44:46.858Z,28
2018-12-20T07:50:10.170Z,29.700001
2018-12-20T07:55:32.859Z,26
2018-12-20T08:00:55.573Z,29.1
2018-12-20T08:06:18.715Z,27.799999
2018-12-20T08:11:42.089Z,25.700001
2018-12-20T08:17:04.774Z,30.5
2018-12-20T08:22:27.507Z,31.6
2018-12-20T08:27:50.397Z,28.6
2018-12-20T08:33:13.230Z,27.799999
2018-12-20T08:38:36.077Z,28.700001
2018-12-20T08:44:09.539Z,30.6
2018-12-20T08:49:32.701Z,28.799999
2018-12-20T08:54:55.587Z,27.1
2018-12-20T09:00:18.284Z,30.799999
2018-12-20T09:05:41.121Z,23.299999
2018-12-20T09:11:03.851Z,23.700001
2018-12-20T09:16:26.708Z,24.1
2018-12-20T09:21:49.416Z,28.9
2018-12-20T09:27:12.121Z,23.4
2018-12-20T09:32:35.154Z,18.799999
2018-12-20T09:37:58.001Z,18.200001
2018-12-20T09:43:22.156Z,20
2018-12-20T09:48:55.584Z,19.5
2018-12-20T09:54:18.349Z,16.1
2018-12-20T09:59:41.126Z,17.1
2018-12-20T10:05:03.896Z,13.9
2018-12-20T10:10:26.567Z,13.8
2018-12-20T10:15:49.566Z,11.9
2018-12-20T10:21:12.356Z,10.8
2018-12-20T10:26:35.095Z,10.6
2018-12-20T10:31:57.727Z,9
2018-12-20T10:45:59.031Z,9.5
2018-12-20T10:52:54.730Z,6.9
2018-12-20T10:59:44.748Z,7.6
2018-12-20T11:06:03.928Z,6.7
2018-12-20T11:12:02.001Z,10.7
2018-12-20T11:17:37.752Z,8
2018-12-20T11:23:44.523Z,7.5
2018-12-20T11:29:07.571Z,6.8
2018-12-20T11:34:30.427Z,5.5
2018-12-20T11:39:59.331Z,6
2018-12-20T11:45:17.049Z,5.5
2018-12-20T11:51:20.692Z,6.5
2018-12-20T11:57:15.638Z,7.7
2018-12-20T12:11:03.446Z,8.4
2018-12-20T12:16:27.242Z,5
2018-12-20T12:21:50.101Z,4.7
2018-12-20T12:27:12.806Z,4.8
2018-12-20T12:32:35.509Z,6.6
2018-12-20T12:37:58.840Z,7.9
2018-12-20T12:43:21.438Z,7.9
2018-12-20T12:48:44.251Z,5.5
2018-12-20T12:54:07.085Z,7.8
2018-12-20T12:59:30.629Z,5.5
2018-12-20T13:04:54.311Z,8.2
2018-12-20T13:10:17.216Z,8.8
2018-12-20T13:15:40.535Z,8.4
2018-12-20T13:21:03.411Z,7.9
2018-12-20T13:26:26.178Z,6.3
2018-12-20T13:31:49.861Z,8.1
2018-12-20T13:37:15.888Z,5.5
2018-12-20T13:42:37.141Z,6.3
2018-12-20T13:47:59.785Z,4.8
2018-12-20T13:53:22.853Z,6.6
2018-12-20T13:58:45.554Z,8
2018-12-20T14:04:09.153Z,5.7
2018-12-20T14:09:32.675Z,6.5
2018-12-20T14:14:55.461Z,4.5
2018-12-20T14:20:18.159Z,5.6
2018-12-20T14:25:40.885Z,4.8
2018-12-20T14:31:03.726Z,5.7
2018-12-20T14:36:26.742Z,4.9
2018-12-20T14:41:49.446Z,6.2
2018-12-20T14:47:12.444Z,3.9
2018-12-20T14:52:35.147Z,5.1
2018-12-20T14:57:58.510Z,6.7
2018-12-20T15:03:20.733Z,6.4
2018-12-20T15:08:43.646Z,4.5
2018-12-20T15:14:06.630Z,4.6
2018-12-20T15:19:30.476Z,5.7
2018-12-20T15:24:53.275Z,5.6
2018-12-20T15:30:16.640Z,6.3
2018-12-20T15:35:39.587Z,5.7
2018-12-20T15:41:02.651Z,6
2018-12-20T15:46:25.421Z,3.8
2018-12-20T15:51:59.069Z,4.3
2018-12-20T15:57:21.789Z,4.8
2018-12-20T16:02:44.615Z,7.7
2018-12-20T16:08:07.481Z,7.1
2018-12-20T16:13:30.223Z,8.2
2018-12-20T16:18:53.838Z,11.6
2018-12-20T16:24:26.549Z,9.8
2018-12-20T16:29:58.772Z,8.8
2018-12-20T16:35:30.745Z,9
2018-12-20T16:41:02.555Z,11.7
2018-12-20T16:46:25.312Z,10.9
2018-12-20T16:51:57.553Z,12.4
2018-12-20T16:57:20.223Z,14.2
2018-12-20T17:02:43.005Z,17
2018-12-20T17:08:05.950Z,13.3
2018-12-20T17:13:37.812Z,16.799999
2018-12-20T17:19:00.485Z,17.1
2018-12-20T17:24:23.265Z,14.1
2018-12-20T17:29:55.383Z,19.4
2018-12-20T17:35:29.229Z,19
2018-12-20T17:41:02.444Z,19.5
2018-12-20T17:46:37.793Z,23
2018-12-20T17:52:11.248Z,18.9
2018-12-20T17:57:45.618Z,22.299999
2018-12-20T18:03:17.325Z,22.700001
2018-12-20T18:08:40.131Z,24
2018-12-20T18:14:02.937Z,26.299999
2018-12-20T18:19:26.504Z,29.4
2018-12-20T18:24:49.741Z,29.1
2018-12-20T18:30:12.519Z,28.1
2018-12-20T18:35:38.511Z,29.4
2018-12-20T18:41:02.265Z,27.1
2018-12-20T18:46:26.167Z,28.200001
2018-12-20T18:52:15.784Z,33.900002
2018-12-20T18:57:49.181Z,31.5
2018-12-20T19:03:11.991Z,29.4
2018-12-20T19:08:34.770Z,30.299999
2018-12-20T19:13:57.545Z,35.5
2018-12-20T19:19:21.314Z,30.6
2018-12-20T19:24:44.385Z,32.5
2018-12-20T19:30:07.066Z,33.900002
2018-12-20T19:35:41.440Z,32.700001
2018-12-20T19:41:13.951Z,33.700001
2018-12-20T19:46:47.249Z,31.200001
2018-12-20T19:52:19.959Z,31.299999
2018-12-20T19:57:42.633Z,35.900002
2018-12-20T20:03:05.822Z,31.4
2018-12-20T20:08:28.576Z,27.700001
2018-12-20T20:13:51.364Z,25.799999
2018-12-20T20:19:14.139Z,29.4
2018-12-20T20:24:37.088Z,29
2018-12-20T20:30:00.712Z,27.9
2018-12-20T20:35:24.508Z,29.200001
2018-12-20T20:40:47.178Z,30.1
2018-12-20T20:46:09.916Z,28.200001
2018-12-20T20:51:33.204Z,30.4
2018-12-20T20:56:57.291Z,30.1
2018-12-20T21:02:20.885Z,26.5
2018-12-20T21:07:43.522Z,28.5
2018-12-20T21:13:06.323Z,24.9
2018-12-20T21:18:29.018Z,28.5
2018-12-20T21:23:51.885Z,27.5
2018-12-20T21:29:14.767Z,28.200001
2018-12-20T21:34:37.463Z,25
2018-12-20T21:40:00.232Z,24.200001
2018-12-20T21:45:23.264Z,26
2018-12-20T21:50:46.062Z,24.200001
2018-12-20T21:56:08.892Z,25.700001
2018-12-20T22:01:31.587Z,24.299999
2018-12-20T22:06:55.370Z,21.799999
2018-12-20T22:12:18.239Z,21
2018-12-20T22:17:40.936Z,22.6
2018-12-20T22:23:03.584Z,23.6
2018-12-20T22:28:26.316Z,21.6
2018-12-20T22:33:48.950Z,22.4
2018-12-20T22:39:11.638Z,24.200001
2018-12-20T22:44:34.344Z,25.4
2018-12-20T22:49:58.920Z,23.700001
2018-12-20T22:55:22.047Z,21.5
2018-12-20T23:00:44.682Z,19.4
2018-12-20T23:06:07.316Z,21.700001
2018-12-20T23:11:31.228Z,17.799999
2018-12-20T23:16:54.656Z,19.1
2018-12-20T23:22:17.338Z,18.4
2018-12-20T23:27:39.986Z,21.700001
2018-12-20T23:33:03.246Z,21.799999
2018-12-20T23:38:25.936Z,17.700001
2018-12-20T23:43:48.761Z,17.5
2018-12-20T23:49:11.395Z,15.9
2018-12-20T23:54:34.072Z,12.7
2018-12-20T23:59:57.696Z,15.3
